Time;durP1;ratioP1;P1;durP2;ratioP2;P2;SDS_P1;SDS_P2;PMS_P1;PMS_P2;Temp;Humidity;BMP_temperature;BMP_pressure;BME280_temperature;BME280_humidity;BME280_pressure;Samples;Min_cycle;Max_cycle;Signal;HPM_P1;HPM_P2
2023/05/14 00:01:47;;;;;;;0.73;0.73;;;12.20;99.90;;;;;;6129166;23;20013;-84
2023/05/14 00:04:12;;;;;;;0.90;0.90;;;12.30;99.90;;;;;;6080762;23;20025;-84
2023/05/14 00:06:38;;;;;;;2.33;1.50;;;12.20;99.90;;;;;;6129803;23;20026;-84
2023/05/14 00:09:05;;;;;;;0.80;0.80;;;12.20;99.90;;;;;;6104476;23;20052;-84
2023/05/14 00:11:30;;;;;;;;;;;12.20;99.90;;;;;;6156184;23;20021;-83
2023/05/14 00:13:56;;;;;;;0.95;0.80;;;12.10;99.90;;;;;;6155156;23;20317;-84
2023/05/14 00:16:21;;;;;;;0.90;0.83;;;12.10;99.90;;;;;;6129300;23;20093;-84
2023/05/14 00:18:47;;;;;;;0.97;0.73;;;12.10;99.90;;;;;;6104860;23;20091;-84
2023/05/14 00:21:13;;;;;;;1.33;1.07;;;12.10;99.90;;;;;;6129698;23;20052;-83
2023/05/14 00:23:39;;;;;;;0.50;0.50;;;12.10;99.90;;;;;;6105209;23;20329;-84
2023/05/14 00:26:04;;;;;;;2.42;1.30;;;12.00;99.90;;;;;;6104611;23;20080;-84
2023/05/14 00:28:33;;;;;;;1.00;0.87;;;11.90;99.90;;;;;;6105319;23;20029;-83
2023/05/14 00:30:58;;;;;;;1.13;0.90;;;11.90;99.90;;;;;;6128836;23;20022;-84
2023/05/14 00:33:24;;;;;;;1.60;0.63;;;11.90;99.90;;;;;;6128935;23;20029;-84
2023/05/14 00:35:50;;;;;;;0.80;0.70;;;11.80;99.90;;;;;;6129101;23;20045;-84
2023/05/14 00:38:18;;;;;;;1.00;0.60;;;11.90;99.90;;;;;;6105064;23;20395;-84
2023/05/14 00:40:44;;;;;;;1.02;0.98;;;11.90;99.90;;;;;;6129219;23;20057;-84
2023/05/14 00:43:11;;;;;;;1.73;1.00;;;11.90;99.90;;;;;;6128688;23;20476;-84
2023/05/14 00:45:37;;;;;;;0.60;0.60;;;11.90;99.90;;;;;;6129274;23;20068;-84
2023/05/14 00:48:03;;;;;;;1.33;0.90;;;11.90;99.90;;;;;;6128876;23;20381;-86
2023/05/14 00:50:29;;;;;;;0.95;0.82;;;11.80;99.90;;;;;;6105243;23;20021;-84
2023/05/14 00:52:55;;;;;;;1.40;0.70;;;11.70;99.90;;;;;;6128739;23;20013;-83
2023/05/14 00:55:21;;;;;;;1.50;0.77;;;11.70;99.90;;;;;;6129142;23;20377;-83
2023/05/14 00:57:48;;;;;;;1.20;1.02;;;11.70;99.90;;;;;;6129042;23;20052;-83
2023/05/14 01:00:14;;;;;;;1.85;0.82;;;11.70;99.90;;;;;;6056667;23;20048;-86
2023/05/14 01:02:39;;;;;;;1.30;0.63;;;11.60;99.90;;;;;;6155328;23;20021;-84
2023/05/14 01:05:06;;;;;;;1.13;0.70;;;11.60;99.90;;;;;;6128666;23;20455;-83
2023/05/14 01:07:36;;;;;;;1.08;0.98;;;11.60;99.90;;;;;;6129038;23;20027;-83
2023/05/14 01:10:12;;;;;;;1.65;0.77;;;11.50;99.90;;;;;;6128515;23;20017;-86
2023/05/14 01:12:40;;;;;;;1.15;1.05;;;11.50;99.90;;;;;;6129072;23;20028;-83
2023/05/14 01:15:15;;;;;;;1.15;0.93;;;11.40;99.90;;;;;;6128267;23;20080;-85
2023/05/14 01:17:47;;;;;;;1.60;0.98;;;11.30;99.90;;;;;;6129187;23;20026;-84
2023/05/14 01:20:13;;;;;;;1.08;0.98;;;11.30;99.90;;;;;;6128652;23;20009;-84
2023/05/14 01:22:39;;;;;;;2.97;1.60;;;11.30;99.90;;;;;;6155079;23;20041;-83
2023/05/14 01:25:05;;;;;;;3.37;1.57;;;11.20;99.90;;;;;;6104153;23;20021;-83
2023/05/14 01:27:46;;;;;;;1.35;1.15;;;11.20;99.90;;;;;;6128858;23;20017;-84
2023/05/14 01:30:24;;;;;;;1.35;0.60;;;11.20;99.90;;;;;;6128669;23;20434;-83
2023/05/14 01:32:55;;;;;;;1.65;1.42;;;11.20;99.90;;;;;;6128775;23;20009;-84
2023/05/14 01:35:27;;;;;;;1.38;1.08;;;11.20;99.90;;;;;;6129077;23;20025;-83
2023/05/14 01:37:59;;;;;;;0.77;0.77;;;11.10;99.90;;;;;;6128858;23;20013;-84
2023/05/14 01:40:25;;;;;;;1.73;0.70;;;11.10;99.90;;;;;;6128614;23;20018;-83
2023/05/14 01:42:52;;;;;;;2.05;1.30;;;11.10;99.90;;;;;;6128670;23;20453;-84
2023/05/14 01:45:22;;;;;;;0.85;0.82;;;11.00;99.90;;;;;;6104059;23;20021;-84
2023/05/14 01:47:49;;;;;;;0.85;0.85;;;11.00;99.90;;;;;;6128883;23;20104;-84
2023/05/14 01:50:15;;;;;;;0.70;0.63;;;10.90;99.90;;;;;;6128699;23;20021;-84
2023/05/14 01:52:41;;;;;;;0.88;0.77;;;10.90;99.90;;;;;;6128793;23;20068;-84
2023/05/14 01:55:07;;;;;;;0.83;0.80;;;10.90;99.90;;;;;;6128411;23;20386;-84
2023/05/14 01:57:33;;;;;;;1.10;0.65;;;10.90;99.90;;;;;;6128597;23;20048;-84
2023/05/14 01:59:59;;;;;;;0.87;0.60;;;10.90;99.90;;;;;;6128232;23;20341;-84
2023/05/14 02:02:24;;;;;;;1.03;0.57;;;10.80;99.90;;;;;;6128575;23;20026;-83
2023/05/14 02:04:50;;;;;;;0.77;0.73;;;10.80;99.90;;;;;;6128808;23;20337;-84
2023/05/14 02:07:16;;;;;;;0.88;0.85;;;10.80;99.90;;;;;;6128449;23;20010;-83
2023/05/14 02:09:42;;;;;;;0.90;0.63;;;10.80;99.90;;;;;;6128643;23;20504;-83
2023/05/14 02:12:08;;;;;;;2.20;1.13;;;10.80;99.90;;;;;;6079955;23;20017;-83
2023/05/14 02:14:34;;;;;;;2.30;0.80;;;10.90;99.90;;;;;;6080592;23;20025;-83
2023/05/14 02:17:00;;;;;;;1.75;1.05;;;11.00;99.90;;;;;;6128531;23;20302;-86
2023/05/14 02:19:26;;;;;;;1.13;1.00;;;11.00;99.90;;;;;;6080079;23;20071;-84
2023/05/14 02:21:51;;;;;;;1.00;0.73;;;11.00;99.90;;;;;;6128599;23;20045;-84
2023/05/14 02:24:17;;;;;;;1.70;0.90;;;11.10;99.90;;;;;;6128442;23;20449;-83
2023/05/14 02:26:43;;;;;;;1.50;0.80;;;11.20;99.90;;;;;;6128880;23;20445;-83
2023/05/14 02:29:08;;;;;;;1.23;1.20;;;11.20;99.90;;;;;;6128256;23;20029;-84
2023/05/14 02:31:34;;;;;;;0.50;0.50;;;11.20;99.90;;;;;;6129038;23;20056;-83
2023/05/14 02:34:03;;;;;;;0.53;0.53;;;11.30;99.90;;;;;;6106218;23;20017;-83
2023/05/14 02:36:29;;;;;;;1.23;1.10;;;11.20;99.90;;;;;;6130396;23;20013;-83
2023/05/14 02:38:57;;;;;;;0.57;0.57;;;11.30;99.90;;;;;;6106058;23;20021;-83
2023/05/14 02:41:23;;;;;;;1.77;0.90;;;11.20;99.90;;;;;;6129804;23;20018;-83
2023/05/14 02:43:48;;;;;;;3.40;1.27;;;11.10;99.90;;;;;;6081835;23;20103;-84
2023/05/14 02:46:14;;;;;;;3.67;1.13;;;11.00;99.90;;;;;;6129689;23;20056;-84
2023/05/14 02:48:40;;;;;;;1.97;1.17;;;11.00;99.90;;;;;;6105801;23;20076;-83
2023/05/14 02:51:06;;;;;;;1.00;0.50;;;10.90;99.90;;;;;;6130251;23;20068;-86
2023/05/14 02:53:32;;;;;;;1.58;0.77;;;10.80;99.90;;;;;;6105936;23;20017;-84
2023/05/14 02:55:58;;;;;;;1.80;1.17;;;10.70;99.90;;;;;;6106212;23;20032;-84
2023/05/14 02:58:23;;;;;;;0.97;0.60;;;10.70;99.90;;;;;;6156720;23;20021;-83
2023/05/14 03:00:50;;;;;;;0.70;0.70;;;10.70;99.90;;;;;;6159570;23;20336;-84
2023/05/14 03:03:15;;;;;;;1.10;1.00;;;10.70;99.90;;;;;;6159121;23;20021;-85
2023/05/14 03:05:41;;;;;;;1.53;0.80;;;10.70;99.90;;;;;;6159973;23;20025;-84
2023/05/14 03:08:07;;;;;;;1.17;0.60;;;10.70;99.90;;;;;;6159492;23;20017;-84
2023/05/14 03:10:32;;;;;;;1.27;0.80;;;10.60;99.90;;;;;;6135163;23;20013;-83
2023/05/14 03:12:58;;;;;;;0.80;0.70;;;10.50;99.90;;;;;;6159529;23;20021;-83
2023/05/14 03:15:24;;;;;;;1.17;0.60;;;10.50;99.90;;;;;;6159304;23;20052;-83
2023/05/14 03:17:50;;;;;;;1.30;0.90;;;10.40;99.90;;;;;;6159435;23;20013;-84
2023/05/14 03:20:16;;;;;;;1.33;0.90;;;10.40;99.90;;;;;;6159118;23;20017;-84
2023/05/14 03:22:41;;;;;;;1.50;0.90;;;10.40;99.90;;;;;;6159328;23;20075;-83
2023/05/14 03:25:08;;;;;;;1.13;0.73;;;10.40;99.90;;;;;;6134961;23;20021;-83
2023/05/14 03:27:33;;;;;;;0.70;0.70;;;10.40;99.90;;;;;;6159471;23;20052;-83
2023/05/14 03:29:59;;;;;;;1.50;0.80;;;10.30;99.90;;;;;;6159324;23;20013;-85
2023/05/14 03:32:25;;;;;;;0.70;0.70;;;10.40;99.90;;;;;;6158316;23;20103;-82
2023/05/14 03:34:51;;;;;;;1.50;0.87;;;10.30;99.90;;;;;;6159451;23;20025;-83
2023/05/14 03:37:16;;;;;;;0.50;0.50;;;10.30;99.90;;;;;;6159077;23;20345;-82
2023/05/14 03:39:42;;;;;;;0.53;0.47;;;10.30;99.90;;;;;;6159588;23;20032;-82
2023/05/14 03:42:08;;;;;;;0.60;0.60;;;10.30;99.90;;;;;;6159305;23;20395;-84
2023/05/14 03:44:33;;;;;;;1.20;0.73;;;10.30;99.90;;;;;;6158745;23;20032;-83
2023/05/14 03:46:59;;;;;;;0.97;0.60;;;10.30;99.90;;;;;;6134852;23;20021;-83
2023/05/14 03:49:25;;;;;;;1.33;0.73;;;10.30;99.90;;;;;;6159226;23;20028;-82
2023/05/14 03:51:50;;;;;;;0.97;0.60;;;10.40;99.90;;;;;;6159343;23;20416;-83
2023/05/14 03:54:16;;;;;;;0.83;0.77;;;10.30;99.90;;;;;;6159250;23;20025;-83
2023/05/14 03:56:41;;;;;;;0.30;0.30;;;10.40;99.90;;;;;;6158894;23;20056;-84
2023/05/14 03:59:07;;;;;;;0.83;0.73;;;10.40;99.90;;;;;;6159052;23;20017;-83
2023/05/14 04:01:33;;;;;;;0.53;0.50;;;10.50;99.90;;;;;;6158907;23;20088;-83
2023/05/14 04:03:58;;;;;;;1.17;1.07;;;10.50;99.90;;;;;;6159309;23;20091;-83
2023/05/14 04:06:24;;;;;;;0.63;0.50;;;10.50;99.90;;;;;;6159059;23;20436;-83
2023/05/14 04:08:50;;;;;;;1.10;0.83;;;10.60;99.90;;;;;;6134466;23;20443;-83
2023/05/14 04:11:15;;;;;;;1.07;0.50;;;10.60;99.90;;;;;;6134169;23;20096;-83
2023/05/14 04:13:41;;;;;;;0.87;0.67;;;10.60;99.90;;;;;;6159188;23;20020;-83
2023/05/14 04:16:07;;;;;;;0.70;0.50;;;10.70;99.90;;;;;;6159142;23;20092;-83
2023/05/14 04:18:35;;;;;;;0.37;0.37;;;10.70;99.90;;;;;;6134194;23;20025;-83
2023/05/14 04:21:01;;;;;;;1.58;0.52;;;10.70;99.90;;;;;;6134816;23;20039;-83
2023/05/14 04:23:27;;;;;;;0.60;0.60;;;10.70;99.90;;;;;;6134103;23;20024;-83
2023/05/14 04:25:53;;;;;;;0.40;0.40;;;10.80;99.90;;;;;;6159143;23;20009;-83
2023/05/14 04:28:18;;;;;;;0.20;0.20;;;10.80;99.90;;;;;;6158084;23;20092;-84
2023/05/14 04:30:44;;;;;;;0.30;0.30;;;10.80;99.90;;;;;;6158945;23;20036;-83
2023/05/14 04:33:10;;;;;;;1.38;1.10;;;10.80;99.90;;;;;;6134080;23;20009;-84
2023/05/14 04:35:36;;;;;;;1.87;0.77;;;10.80;99.90;;;;;;6134073;23;20329;-83
2023/05/14 04:38:02;;;;;;;0.50;0.50;;;10.90;99.90;;;;;;6134514;23;20341;-83
2023/05/14 04:40:27;;;;;;;1.37;0.60;;;10.90;99.90;;;;;;6158596;23;20076;-83
2023/05/14 04:42:53;;;;;;;0.57;0.57;;;10.90;99.90;;;;;;6158909;23;20252;-83
2023/05/14 04:45:19;;;;;;;0.60;0.30;;;10.90;99.90;;;;;;6133998;23;20023;-85
2023/05/14 04:47:45;;;;;;;0.60;0.50;;;10.90;99.90;;;;;;6134261;23;20017;-84
2023/05/14 04:50:11;;;;;;;0.47;0.30;;;10.80;99.90;;;;;;6158746;23;20029;-83
2023/05/14 04:52:38;;;;;;;2.43;0.30;;;10.80;99.90;;;;;;6158369;23;20013;-83
2023/05/14 04:55:04;;;;;;;;;;;10.80;99.90;;;;;;6159144;23;20333;-83
2023/05/14 04:57:29;;;;;;;0.45;0.45;;;10.90;99.90;;;;;;6141111;23;19924;-84
2023/05/14 04:59:55;;;;;;;0.80;0.30;;;10.90;99.90;;;;;;6104723;23;20025;-83
2023/05/14 05:02:21;;;;;;;0.20;0.20;;;10.90;99.90;;;;;;6104563;23;20093;-87
2023/05/14 05:04:47;;;;;;;0.40;0.40;;;10.90;99.90;;;;;;6104725;23;20104;-83
2023/05/14 05:07:13;;;;;;;0.27;0.27;;;10.80;99.90;;;;;;6129220;23;20029;-83
2023/05/14 05:09:39;;;;;;;0.82;0.45;;;10.80;99.90;;;;;;6128793;23;20335;-83
2023/05/14 05:12:05;;;;;;;0.60;0.30;;;10.80;99.90;;;;;;6128700;23;20021;-83
2023/05/14 05:14:31;;;;;;;0.52;0.50;;;10.80;99.90;;;;;;6128736;23;20013;-83
2023/05/14 05:16:57;;;;;;;0.67;0.50;;;11.00;99.90;;;;;;6104606;23;20044;-82
2023/05/14 05:19:23;;;;;;;0.10;0.10;;;11.30;99.90;;;;;;6128854;23;20249;-84
2023/05/14 05:21:48;;;;;;;0.87;0.53;;;11.60;99.90;;;;;;6129192;23;20017;-83
2023/05/14 05:24:14;;;;;;;0.63;0.40;;;11.70;99.90;;;;;;6128888;23;20018;-83
2023/05/14 05:26:40;;;;;;;0.67;0.37;;;11.70;99.90;;;;;;6080501;23;20028;-84
2023/05/14 05:29:06;;;;;;;0.73;0.30;;;11.60;99.90;;;;;;6129230;23;20021;-84
2023/05/14 05:31:32;;;;;;;1.08;0.55;;;11.60;99.90;;;;;;6128726;23;20025;-83
2023/05/14 05:33:58;;;;;;;0.32;0.30;;;11.60;99.90;;;;;;6129060;23;20525;-83
2023/05/14 05:36:24;;;;;;;0.65;0.32;;;11.60;99.90;;;;;;6128731;23;20056;-87
2023/05/14 05:38:50;;;;;;;0.40;0.40;;;11.60;99.90;;;;;;6155103;23;20059;-84
2023/05/14 05:41:16;;;;;;;0.50;0.43;;;11.60;99.90;;;;;;6129124;23;20449;-83
2023/05/14 05:43:41;;;;;;;0.20;0.20;;;11.70;99.90;;;;;;6128828;23;20022;-84
2023/05/14 05:46:07;;;;;;;2.70;0.83;;;11.70;99.90;;;;;;6129011;23;20445;-84
2023/05/14 05:48:33;;;;;;;0.40;0.40;;;11.90;99.90;;;;;;6104275;23;20010;-84
2023/05/14 05:50:58;;;;;;;0.73;0.67;;;12.10;99.90;;;;;;6104747;23;20084;-83
2023/05/14 05:53:24;;;;;;;1.38;0.60;;;12.30;99.90;;;;;;6128745;23;20045;-84
2023/05/14 05:55:50;;;;;;;0.20;0.20;;;12.50;99.90;;;;;;6128390;23;20464;-84
2023/05/14 05:58:19;;;;;;;0.40;0.40;;;12.70;99.90;;;;;;6128933;23;20580;-84
2023/05/14 06:00:45;;;;;;;0.45;0.45;;;12.80;99.90;;;;;;6128008;23;20025;-83
2023/05/14 06:03:12;;;;;;;1.27;0.60;;;13.00;99.90;;;;;;6080712;23;20025;-84
2023/05/14 06:05:38;;;;;;;1.33;0.52;;;13.00;99.90;;;;;;6104108;23;20026;-84
2023/05/14 06:08:04;;;;;;;0.77;0.55;;;13.10;99.90;;;;;;6130276;23;20441;-84
2023/05/14 06:10:30;;;;;;;1.10;0.60;;;13.30;99.90;;;;;;6156601;23;20017;-84
2023/05/14 06:12:55;;;;;;;0.43;0.43;;;13.40;99.90;;;;;;6106284;23;20101;-84
2023/05/14 06:15:21;;;;;;;1.03;0.70;;;13.50;99.90;;;;;;6130930;23;20445;-84
2023/05/14 06:17:47;;;;;;;0.45;0.45;;;13.60;99.90;;;;;;6129758;23;20092;-84
2023/05/14 06:20:13;;;;;;;0.43;0.40;;;13.70;99.90;;;;;;6105947;23;20060;-84
2023/05/14 06:22:39;;;;;;;0.90;0.50;;;13.90;99.90;;;;;;6130349;23;20028;-84
2023/05/14 06:25:05;;;;;;;0.85;0.70;;;14.00;99.90;;;;;;6130760;23;20013;-84
2023/05/14 06:27:30;;;;;;;0.55;0.52;;;14.10;99.90;;;;;;6081999;23;20326;-85
2023/05/14 06:29:56;;;;;;;0.83;0.60;;;14.30;99.90;;;;;;6106443;23;20028;-84
2023/05/14 06:32:22;;;;;;;0.75;0.73;;;14.40;99.90;;;;;;6106135;23;20265;-85
2023/05/14 06:34:47;;;;;;;1.13;0.40;;;14.60;99.90;;;;;;6130869;23;20014;-81
2023/05/14 06:37:13;;;;;;;0.28;0.28;;;14.80;99.90;;;;;;6106183;23;20018;-81
2023/05/14 06:39:39;;;;;;;0.57;0.40;;;15.00;99.90;;;;;;6130036;23;20052;-83
2023/05/14 06:42:06;;;;;;;0.70;0.52;;;15.10;99.90;;;;;;6129816;23;20013;-83
2023/05/14 06:44:32;;;;;;;0.40;0.40;;;15.30;99.90;;;;;;6130101;23;20017;-85
2023/05/14 06:46:57;;;;;;;0.32;0.30;;;15.40;99.90;;;;;;6129789;23;20020;-83
2023/05/14 06:49:23;;;;;;;0.60;0.50;;;15.50;99.90;;;;;;6156788;23;20017;-83
2023/05/14 06:51:49;;;;;;;0.57;0.55;;;15.80;99.90;;;;;;6156178;23;20017;-83
2023/05/14 06:54:14;;;;;;;0.30;0.25;;;16.00;99.90;;;;;;6156582;23;20018;-83
2023/05/14 06:56:40;;;;;;;0.50;0.40;;;16.10;99.90;;;;;;6159027;23;20017;-83
2023/05/14 06:59:06;;;;;;;0.50;0.50;;;16.30;99.90;;;;;;6135147;23;20021;-83
2023/05/14 07:01:31;;;;;;;0.32;0.32;;;16.50;99.90;;;;;;6159799;23;20105;-84
2023/05/14 07:03:57;;;;;;;0.30;0.30;;;16.50;99.90;;;;;;6159301;23;20445;-85
2023/05/14 07:06:23;;;;;;;0.63;0.50;;;16.50;99.90;;;;;;6135086;23;20020;-82
2023/05/14 07:08:48;;;;;;;0.55;0.55;;;16.50;99.90;;;;;;6159842;23;20349;-81
2023/05/14 07:11:14;;;;;;;0.43;0.43;;;16.50;99.90;;;;;;6160098;23;20056;-82
2023/05/14 07:13:41;;;;;;;0.80;0.60;;;16.40;99.90;;;;;;6186354;23;20024;-83
2023/05/14 07:16:10;;;;;;;0.80;0.52;;;16.50;99.90;;;;;;6136053;23;20017;-82
2023/05/14 07:18:36;;;;;;;1.55;0.40;;;16.50;99.90;;;;;;6134855;23;20052;-84
2023/05/14 07:21:03;;;;;;;0.57;0.30;;;16.70;99.90;;;;;;6159489;23;20064;-83
2023/05/14 07:23:29;;;;;;;0.50;0.40;;;16.90;99.90;;;;;;6159296;23;20021;-83
2023/05/14 07:25:55;;;;;;;0.68;0.38;;;17.00;99.90;;;;;;6159330;23;20076;-82
2023/05/14 07:28:20;;;;;;;0.25;0.25;;;17.20;99.90;;;;;;6159402;23;20072;-83
2023/05/14 07:30:46;;;;;;;0.47;0.40;;;17.40;99.90;;;;;;6134042;23;20021;-82
2023/05/14 07:33:12;;;;;;;0.70;0.70;;;17.70;99.90;;;;;;6159252;23;20430;-83
2023/05/14 07:35:37;;;;;;;0.20;0.20;;;17.80;99.90;;;;;;6185909;23;20095;-82
2023/05/14 07:38:04;;;;;;;0.60;0.30;;;17.90;99.90;;;;;;6158944;23;20100;-81
2023/05/14 07:40:30;;;;;;;0.30;0.30;;;18.10;99.90;;;;;;6134722;23;20028;-82
2023/05/14 07:42:56;;;;;;;0.90;0.70;;;18.10;99.90;;;;;;6158891;23;20056;-83
2023/05/14 07:45:21;;;;;;;0.40;0.40;;;18.10;99.90;;;;;;6159209;23;20017;-82
2023/05/14 07:47:50;;;;;;;0.40;0.35;;;18.00;99.90;;;;;;6158742;23;20016;-84
2023/05/14 07:50:17;;;;;;;0.40;0.40;;;18.20;99.90;;;;;;6185588;23;20013;-82
2023/05/14 07:52:46;;;;;;;0.22;0.22;;;18.40;99.90;;;;;;6158694;23;20027;-83
2023/05/14 07:55:12;;;;;;;0.40;0.30;;;18.50;99.90;;;;;;6185778;23;20092;-82
2023/05/14 07:57:38;;;;;;;0.40;0.40;;;18.60;99.90;;;;;;6143308;23;20277;-83
2023/05/14 08:00:08;;;;;;;0.25;0.25;;;18.60;99.90;;;;;;6129275;23;20021;-82
2023/05/14 08:02:34;;;;;;;0.32;0.32;;;18.60;99.90;;;;;;6129140;23;20029;-83
2023/05/14 08:05:02;;;;;;;0.30;0.30;;;18.60;99.90;;;;;;6104282;23;20022;-83
2023/05/14 08:07:29;;;;;;;0.30;0.30;;;18.70;99.90;;;;;;6104893;23;20029;-83
2023/05/14 08:09:54;;;;;;;0.32;0.32;;;18.80;99.90;;;;;;6104117;23;20100;-83
2023/05/14 08:12:20;;;;;;;0.52;0.40;;;19.00;99.90;;;;;;6155212;23;20095;-84
2023/05/14 08:14:46;;;;;;;0.25;0.25;;;19.10;99.90;;;;;;6129075;23;20051;-84
2023/05/14 08:17:12;;;;;;;0.50;0.50;;;19.00;99.90;;;;;;6129595;23;20018;-83
2023/05/14 08:19:37;;;;;;;;;;;19.00;99.90;;;;;;6105516;23;20029;-83
2023/05/14 08:22:03;;;;;;;0.68;0.43;;;18.90;99.90;;;;;;6128998;23;19916;-85
2023/05/14 08:24:29;;;;;;;0.30;0.30;;;18.90;99.90;;;;;;6129370;23;20014;-85
2023/05/14 08:26:55;;;;;;;0.20;0.20;;;19.00;99.90;;;;;;6128459;23;20112;-86
2023/05/14 08:29:21;;;;;;;0.30;0.30;;;19.10;99.90;;;;;;6104482;23;20021;-85
2023/05/14 08:31:48;;;;;;;0.32;0.30;;;19.10;99.90;;;;;;6104046;23;20018;-85
2023/05/14 08:34:14;;;;;;;2.58;0.40;;;19.10;99.90;;;;;;6129040;23;20017;-86
2023/05/14 08:36:40;;;;;;;0.50;0.50;;;19.20;99.90;;;;;;6129326;23;20017;-84
2023/05/14 08:39:06;;;;;;;0.55;0.47;;;19.30;99.90;;;;;;6128720;23;20441;-84
2023/05/14 08:41:32;;;;;;;;;;;19.30;99.90;;;;;;6105197;23;20342;-84
2023/05/14 08:44:25;;;;;;;0.47;0.47;;;19.20;99.90;;;;;;6154349;23;19917;-85
2023/05/14 08:46:52;;;;;;;0.55;0.55;;;19.20;99.90;;;;;;6116695;23;20048;-85
2023/05/14 08:49:29;;;;;;;0.40;0.40;;;19.50;99.90;;;;;;6129412;23;20032;-85
2023/05/14 08:51:55;;;;;;;0.50;0.50;;;19.80;99.90;;;;;;6128612;23;20014;-85
2023/05/14 08:54:23;;;;;;;0.30;0.30;;;20.00;99.90;;;;;;6129090;23;20024;-86
2023/05/14 08:56:50;;;;;;;0.13;0.13;;;20.30;99.90;;;;;;6105725;23;20029;-84
2023/05/14 08:59:16;;;;;;;0.60;0.60;;;20.50;99.90;;;;;;6158360;23;20096;-84
2023/05/14 09:01:47;;;;;;;0.85;0.85;;;20.50;99.90;;;;;;6158138;23;20063;-85
2023/05/14 09:04:19;;;;;;;0.52;0.40;;;20.40;99.90;;;;;;6157894;23;20048;-82
2023/05/14 09:06:48;;;;;;;0.65;0.65;;;20.30;99.90;;;;;;6184676;23;20024;-86
2023/05/14 09:09:14;;;;;;;0.68;0.60;;;20.40;99.90;;;;;;6157677;23;20013;-87
2023/05/14 09:11:41;;;;;;;0.60;0.50;;;20.30;99.90;;;;;;6133797;23;20140;-88
2023/05/14 09:14:07;;;;;;;0.50;0.50;;;20.30;99.90;;;;;;6157951;23;20032;-88
2023/05/14 09:16:33;;;;;;;0.50;0.35;;;20.20;99.90;;;;;;6133781;23;20333;-87
2023/05/14 09:18:59;;;;;;;0.45;0.45;;;20.30;99.90;;;;;;6157533;23;20021;-86
2023/05/14 09:21:24;;;;;;;0.40;0.40;;;20.40;99.90;;;;;;6162895;23;20072;-86
2023/05/14 09:23:54;;;;;;;0.50;0.50;;;20.50;99.90;;;;;;6161987;23;20087;-85
2023/05/14 09:26:24;;;;;;;0.55;0.55;;;20.60;99.90;;;;;;6158952;23;20135;-85
2023/05/14 09:28:53;;;;;;;2.63;0.70;;;20.70;99.90;;;;;;6159254;23;20373;-87
2023/05/14 09:31:19;;;;;;;0.40;0.40;;;20.70;99.90;;;;;;6158736;23;20020;-85
2023/05/14 09:33:50;;;;;;;1.20;0.85;;;20.80;99.90;;;;;;6158788;23;20085;-87
2023/05/14 09:36:16;;;;;;;0.40;0.40;;;20.90;99.90;;;;;;6184885;23;20029;-86
2023/05/14 09:38:42;;;;;;;0.60;0.40;;;20.80;99.90;;;;;;6158270;23;20096;-87
2023/05/14 09:41:07;;;;;;;0.52;0.45;;;20.90;99.90;;;;;;6157937;23;20053;-85
2023/05/14 09:43:33;;;;;;;0.45;0.45;;;21.00;99.90;;;;;;6133493;23;20029;-86
2023/05/14 09:45:59;;;;;;;0.40;0.40;;;21.20;99.90;;;;;;6157839;23;20090;-86
2023/05/14 09:48:25;;;;;;;0.60;0.60;;;21.40;99.90;;;;;;6158399;23;20017;-87
2023/05/14 09:50:51;;;;;;;;;;;21.70;99.90;;;;;;6134134;23;20024;-87
2023/05/14 09:53:17;;;;;;;0.43;0.43;;;21.70;99.90;;;;;;6157870;23;19912;-85
2023/05/14 09:55:44;;;;;;;0.95;0.60;;;21.90;99.90;;;;;;6157893;23;20021;-86
2023/05/14 09:58:10;;;;;;;0.68;0.60;;;22.10;99.90;;;;;;6157394;23;20087;-87
2023/05/14 10:00:36;;;;;;;;;;;22.30;99.90;;;;;;6158676;23;20060;-86
2023/05/14 10:03:06;;;;;;;0.60;0.57;;;22.40;99.90;;;;;;6157929;23;19970;-88
2023/05/14 10:05:38;;;;;;;0.90;0.60;;;22.50;99.90;;;;;;6158273;23;20306;-95
2023/05/14 10:08:16;;;;;;;0.57;0.57;;;22.60;99.90;;;;;;6160388;23;20377;-84
2023/05/14 10:10:42;;;;;;;0.65;0.65;;;22.60;99.90;;;;;;6158095;23;20026;-86
2023/05/14 10:13:13;;;;;;;0.40;0.40;;;22.70;99.90;;;;;;6133418;23;20009;-85
2023/05/14 10:15:46;;;;;;;0.82;0.60;;;22.70;99.90;;;;;;6133699;23;20017;-85
2023/05/14 10:18:16;;;;;;;1.42;0.50;;;22.70;99.90;;;;;;6157365;23;20016;-84
2023/05/14 10:20:45;;;;;;;1.52;0.60;;;22.90;99.90;;;;;;6158540;23;20025;-85
2023/05/14 10:23:11;;;;;;;0.63;0.52;;;23.00;99.90;;;;;;6132985;23;20017;-87
2023/05/14 10:25:38;;;;;;;0.35;0.35;;;23.00;99.90;;;;;;6158921;23;20113;-87
2023/05/14 10:28:05;;;;;;;0.60;0.60;;;23.10;99.90;;;;;;6158073;23;20017;-85
2023/05/14 10:30:31;;;;;;;0.50;0.50;;;23.20;99.90;;;;;;6158330;23;20100;-85
2023/05/14 10:33:12;;;;;;;0.43;0.43;;;23.40;99.90;;;;;;6184838;23;20075;-85
2023/05/14 10:36:00;;;;;;;0.40;0.40;;;23.50;99.90;;;;;;6158577;23;20017;-85
2023/05/14 10:38:33;;;;;;;0.68;0.50;;;23.60;99.90;;;;;;6133764;23;20021;-85
2023/05/14 10:41:03;;;;;;;0.40;0.40;;;23.60;99.90;;;;;;6158547;23;20021;-85
2023/05/14 10:43:34;;;;;;;1.17;0.52;;;23.70;99.90;;;;;;6134849;23;20044;-86
2023/05/14 10:46:01;;;;;;;0.50;0.50;;;23.60;99.90;;;;;;6158744;23;20017;-85
2023/05/14 10:48:27;;;;;;;0.40;0.40;;;23.50;99.90;;;;;;6157093;23;20013;-85
2023/05/14 10:50:55;;;;;;;0.57;0.57;;;23.50;99.90;;;;;;6158083;23;20099;-84
2023/05/14 10:53:33;;;;;;;0.43;0.43;;;23.60;99.90;;;;;;6184985;23;20096;-85
2023/05/14 10:56:04;;;;;;;0.50;0.50;;;23.60;99.90;;;;;;6186301;23;20036;-85
2023/05/14 10:58:34;;;;;;;0.40;0.40;;;23.80;99.90;;;;;;6159721;23;20079;-85
2023/05/14 11:01:00;;;;;;;0.85;0.60;;;24.00;99.90;;;;;;6160086;23;20099;-85
2023/05/14 11:03:31;;;;;;;0.40;0.40;;;24.20;99.90;;;;;;6159779;23;20017;-88
2023/05/14 11:05:59;;;;;;;0.40;0.40;;;24.30;99.90;;;;;;6160291;23;20061;-82
2023/05/14 11:08:26;;;;;;;0.30;0.30;;;24.20;99.90;;;;;;6135215;23;20605;-84
2023/05/14 11:10:55;;;;;;;0.60;0.60;;;24.00;99.90;;;;;;6160172;23;20341;-84
2023/05/14 11:13:21;;;;;;;0.40;0.40;;;23.90;96.40;;;;;;6159238;23;20017;-85
2023/05/14 11:15:48;;;;;;;0.50;0.50;;;23.70;99.90;;;;;;6160234;23;20516;-84
2023/05/14 11:18:28;;;;;;;0.50;0.50;;;23.80;99.90;;;;;;6159914;23;20101;-87
2023/05/14 11:21:00;;;;;;;0.35;0.35;;;23.90;96.40;;;;;;6111275;23;20017;-85
2023/05/14 11:23:27;;;;;;;0.57;0.57;;;24.00;99.70;;;;;;6159692;23;20027;-85
2023/05/14 11:25:53;;;;;;;0.45;0.45;;;24.30;99.90;;;;;;6160289;23;20021;-86
2023/05/14 11:28:24;;;;;;;0.75;0.75;;;24.40;99.70;;;;;;6159398;23;20456;-86
2023/05/14 11:30:50;;;;;;;0.43;0.43;;;24.40;93.60;;;;;;6111138;23;20052;-85
2023/05/14 11:33:17;;;;;;;0.60;0.60;;;24.50;98.00;;;;;;6134318;23;20400;-80
2023/05/14 11:35:44;;;;;;;0.32;0.32;;;24.40;99.60;;;;;;6185902;23;20326;-84
2023/05/14 11:38:17;;;;;;;0.40;0.40;;;24.40;98.80;;;;;;6159183;23;20020;-85
2023/05/14 11:40:54;;;;;;;0.45;0.45;;;24.70;91.50;;;;;;6110926;23;20017;-83
2023/05/14 11:43:22;;;;;;;0.70;0.65;;;24.90;91.70;;;;;;6134285;23;20044;-80
2023/05/14 11:45:52;;;;;;;0.35;0.35;;;25.00;91.30;;;;;;6185401;23;20025;-83
2023/05/14 11:48:21;;;;;;;0.75;0.50;;;25.00;90.90;;;;;;6158731;23;20017;-83
2023/05/14 11:50:49;;;;;;;0.38;0.38;;;25.00;91.70;;;;;;6134719;23;20048;-83
2023/05/14 11:53:26;;;;;;;0.47;0.47;;;25.00;91.90;;;;;;6158190;23;20017;-84
2023/05/14 11:55:53;;;;;;;0.40;0.40;;;25.00;94.80;;;;;;6134867;23;20024;-83
2023/05/14 11:58:19;;;;;;;0.28;0.25;;;25.10;91.40;;;;;;6158435;23;20453;-84
2023/05/14 12:00:48;;;;;;;0.52;0.52;;;25.30;94.00;;;;;;6159132;23;20468;-84
2023/05/14 12:03:14;;;;;;;0.40;0.40;;;25.40;94.10;;;;;;6134232;23;20311;-85
2023/05/14 12:05:40;;;;;;;0.63;0.43;;;25.40;95.00;;;;;;6134542;23;20017;-84
2023/05/14 12:08:24;;;;;;;0.50;0.50;;;25.40;94.50;;;;;;6134389;23;20040;-84
2023/05/14 12:10:51;;;;;;;0.55;0.55;;;25.20;77.50;;;;;;6158732;23;20059;-84
2023/05/14 12:13:17;;;;;;;0.45;0.45;;;25.20;94.10;;;;;;6158167;23;20021;-85
2023/05/14 12:16:01;;;;;;;0.90;0.50;;;25.10;93.10;;;;;;6134586;23;20020;-84
2023/05/14 12:18:29;;;;;;;0.47;0.43;;;25.00;78.90;;;;;;6158562;23;20021;-83
2023/05/14 12:21:00;;;;;;;0.50;0.50;;;25.00;93.20;;;;;;6158762;23;20079;-84
2023/05/14 12:23:28;;;;;;;0.40;0.40;;;25.00;91.90;;;;;;6110494;23;20021;-83
2023/05/14 12:25:53;;;;;;;0.30;0.30;;;25.00;88.60;;;;;;6158729;23;20017;-83
2023/05/14 12:28:21;;;;;;;0.25;0.25;;;25.10;91.70;;;;;;6133865;23;20445;-84
2023/05/14 12:30:48;;;;;;;0.30;0.30;;;25.30;90.80;;;;;;6133726;23;20092;-84
2023/05/14 12:33:15;;;;;;;0.43;0.30;;;25.30;91.10;;;;;;6158348;23;20020;-83
2023/05/14 12:35:41;;;;;;;0.73;0.50;;;25.20;88.00;;;;;;6158681;23;20098;-83
2023/05/14 12:38:07;;;;;;;0.30;0.30;;;25.10;90.00;;;;;;6158811;23;20115;-84
2023/05/14 12:40:33;;;;;;;0.50;0.50;;;25.10;90.40;;;;;;6157928;23;20016;-84
2023/05/14 12:42:58;;;;;;;0.50;0.50;;;25.10;90.10;;;;;;6158550;23;20452;-84
2023/05/14 12:45:24;;;;;;;0.40;0.30;;;25.10;89.10;;;;;;6158391;23;20017;-84
2023/05/14 12:47:50;;;;;;;0.40;0.40;;;25.00;88.20;;;;;;6158831;23;20024;-83